Houten, Netherlands
Current Conditions -  °F | °C
As of 11:25 AM on Sunday 25 Jan 2015 (Local Time) from EHAM Reporting Station
Scattered Clouds Scattered Clouds  
Wind Chill: 35°   Ceiling: Unl
Heat Index: 41°   Visibility: 5mi
Dew Point: 41°   Wind: 10mph
Humidity: 100%   Direction: 230°SW
Pressure: 30.39"   Gusts: NA
Location:  52.03°N, 5.17°E
Report Text: EHAM 251025Z 23009KT 8000 FEW012 SCT022 05/05 Q1029 NOSIG
Loading
Personal Weather Stations






























Interactive Weather Map New forecast layout! Learn more

10-Day Weather Forecast

Advertisements
Track Severe Weather on mobile